Orbital elements of FENGYUN 1C DEB
| Launched | 9 May 1999 |
| Flight ended | – |
| Launch site | Taiyuan Space Center, PRC |
| Owner | People's Republic of China |
| NORAD ID | 31519 |
| Date fetched |
Epoch osculation |
Inc. [°] |
Ecc. | RA asc node [hr] |
Arg Peri. [°] |
Mean anom [°] |
Mean motion [rev/day] |
Abs. mag |
| Date fetched |
Epoch osculation |
Inc. [°] |
Ecc. | RA asc node [hr] |
Arg Peri. [°] |
Mean anom [°] |
Mean motion [rev/day] |
Abs. mag |
| 2026 May 05 17:57 | 2026 May 05 05:15:48 | 98.5803 | 0.00524 | 8.2138 | 183.9846 | 176.0923 | 14.23715 | – |
| 2026 May 04 17:57 | 2026 Apr 27 04:58:44 | 98.5803 | 0.00519 | 7.6926 | 207.5815 | 176.0923 | 14.23715 | – |
| 2026 May 03 17:57 | 2026 Apr 27 04:58:44 | 98.5803 | 0.00519 | 7.6926 | 207.5815 | 176.0923 | 14.23715 | – |
| 2026 May 02 17:57 | 2026 Apr 27 04:58:44 | 98.5803 | 0.00519 | 7.6926 | 207.5815 | 176.0923 | 14.23715 | – |
| 2026 May 01 17:56 | 2026 Apr 27 04:58:44 | 98.5803 | 0.00519 | 7.6926 | 207.5815 | 176.0923 | 14.23715 | – |
| 2026 Apr 30 17:56 | 2026 Apr 27 04:58:44 | 98.5803 | 0.00519 | 7.6926 | 207.5815 | 176.0923 | 14.23715 | – |
| 2026 Apr 29 17:57 | 2026 Apr 20 05:59:38 | 98.5803 | 0.00515 | 7.2399 | 228.1963 | 176.0923 | 14.23715 | – |
| 2026 Apr 28 17:56 | 2026 Apr 20 05:59:38 | 98.5803 | 0.00515 | 7.2399 | 228.1963 | 176.0923 | 14.23715 | – |
| 2026 Apr 27 17:58 | 2026 Apr 20 05:59:38 | 98.5803 | 0.00515 | 7.2399 | 228.1963 | 176.0923 | 14.23715 | – |
| 2026 Apr 26 17:58 | 2026 Apr 20 05:59:38 | 98.5803 | 0.00515 | 7.2399 | 228.1963 | 176.0923 | 14.23715 | – |
| 2026 Apr 25 17:58 | 2026 Apr 20 05:59:38 | 98.5803 | 0.00515 | 7.2399 | 228.1963 | 176.0923 | 14.23715 | – |
| 2026 Apr 24 17:59 | 2026 Apr 20 05:59:38 | 98.5803 | 0.00515 | 7.2399 | 228.1963 | 176.0923 | 14.23715 | – |
| 2026 Apr 23 17:57 | 2026 Apr 13 17:07:43 | 98.5804 | 0.00514 | 6.8147 | 247.6425 | 176.0923 | 14.23715 | – |
| 2026 Apr 22 17:57 | 2026 Apr 13 17:07:43 | 98.5804 | 0.00514 | 6.8147 | 247.6425 | 176.0923 | 14.23715 | – |
| 2026 Apr 21 17:57 | 2026 Apr 13 17:07:43 | 98.5804 | 0.00514 | 6.8147 | 247.6425 | 176.0923 | 14.23715 | – |
| 2026 Apr 20 17:57 | 2026 Apr 13 17:07:43 | 98.5804 | 0.00514 | 6.8147 | 247.6425 | 176.0923 | 14.23715 | – |
| 2026 Apr 19 17:58 | 2026 Apr 13 17:07:43 | 98.5804 | 0.00514 | 6.8147 | 247.6425 | 176.0923 | 14.23715 | – |
| 2026 Apr 18 17:56 | 2026 Apr 12 17:30:52 | 98.5806 | 0.00513 | 6.7507 | 250.5922 | 176.0923 | 14.23715 | – |
| 2026 Apr 16 17:57 | 2026 Apr 12 17:30:52 | 98.5806 | 0.00513 | 6.7507 | 250.5922 | 176.0923 | 14.23715 | – |
| 2026 Apr 14 17:57 | 2026 Apr 12 17:30:52 | 98.5806 | 0.00513 | 6.7507 | 250.5922 | 176.0923 | 14.23715 | – |
| 2026 Apr 13 17:57 | 2026 Apr 12 17:30:52 | 98.5806 | 0.00513 | 6.7507 | 250.5922 | 176.0923 | 14.23715 | – |
| 2026 Apr 12 17:57 | 2026 Apr 04 10:28:47 | 98.5823 | 0.00513 | 6.2113 | 275.1133 | 176.0923 | 14.23715 | – |
| 2026 Apr 11 17:57 | 2026 Apr 04 10:28:47 | 98.5823 | 0.00513 | 6.2113 | 275.1133 | 176.0923 | 14.23715 | – |
| 2026 Apr 10 17:58 | 2026 Apr 04 10:28:47 | 98.5823 | 0.00513 | 6.2113 | 275.1133 | 176.0923 | 14.23715 | – |
| 2026 Apr 09 18:01 | 2026 Apr 04 10:28:47 | 98.5823 | 0.00513 | 6.2113 | 275.1133 | 176.0923 | 14.23715 | – |
| 2026 Apr 08 17:57 | 2026 Apr 04 10:28:47 | 98.5823 | 0.00513 | 6.2113 | 275.1133 | 176.0923 | 14.23715 | – |